sensor_id;sensor_type;location;lat;lon;timestamp;pressure;altitude;pressure_sealevel;temperature
68510;BMP180;55512;50.102;19.958;2024-03-23T00:52:36;98066.40;;;9.40
68510;BMP180;55512;50.102;19.958;2024-03-23T00:55:02;98058.40;;;9.30
68510;BMP180;55512;50.102;19.958;2024-03-23T00:57:27;98059.60;;;9.30
68510;BMP180;55512;50.102;19.958;2024-03-23T00:59:53;98057.00;;;9.30
68510;BMP180;55512;50.102;19.958;2024-03-23T01:02:18;98061.60;;;9.30
68510;BMP180;55512;50.102;19.958;2024-03-23T01:04:44;98062.40;;;9.22
68510;BMP180;55512;50.102;19.958;2024-03-23T01:07:09;98064.60;;;9.20
68510;BMP180;55512;50.102;19.958;2024-03-23T01:09:35;98062.20;;;9.20
68510;BMP180;55512;50.102;19.958;2024-03-23T01:12:00;98062.00;;;9.20
68510;BMP180;55512;50.102;19.958;2024-03-23T01:14:26;98059.00;;;9.12
68510;BMP180;55512;50.102;19.958;2024-03-23T01:16:52;98051.60;;;9.10
68510;BMP180;55512;50.102;19.958;2024-03-23T01:19:18;98054.00;;;9.10
68510;BMP180;55512;50.102;19.958;2024-03-23T01:21:43;98055.00;;;9.10
68510;BMP180;55512;50.102;19.958;2024-03-23T01:24:08;98051.00;;;9.14
68510;BMP180;55512;50.102;19.958;2024-03-23T01:26:36;98047.40;;;9.10
68510;BMP180;55512;50.102;19.958;2024-03-23T01:29:02;98049.20;;;9.20
68510;BMP180;55512;50.102;19.958;2024-03-23T01:31:27;98045.60;;;9.20
68510;BMP180;55512;50.102;19.958;2024-03-23T01:33:53;98043.60;;;9.20
68510;BMP180;55512;50.102;19.958;2024-03-23T01:36:18;98037.60;;;9.20
68510;BMP180;55512;50.102;19.958;2024-03-23T01:38:44;98036.40;;;9.30
68510;BMP180;55512;50.102;19.958;2024-03-23T01:41:10;98040.00;;;9.28
68510;BMP180;55512;50.102;19.958;2024-03-23T01:43:35;98038.80;;;9.20
68510;BMP180;55512;50.102;19.958;2024-03-23T01:46:01;98038.80;;;9.24
68510;BMP180;55512;50.102;19.958;2024-03-23T01:48:26;98034.60;;;9.28
68510;BMP180;55512;50.102;19.958;2024-03-23T01:50:52;98034.00;;;9.30
68510;BMP180;55512;50.102;19.958;2024-03-23T01:53:17;98034.80;;;9.30
68510;BMP180;55512;50.102;19.958;2024-03-23T01:55:44;98033.80;;;9.30
68510;BMP180;55512;50.102;19.958;2024-03-23T01:58:10;98032.00;;;9.30
68510;BMP180;55512;50.102;19.958;2024-03-23T02:00:36;98030.60;;;9.28
68510;BMP180;55512;50.102;19.958;2024-03-23T02:03:02;98027.60;;;9.28
68510;BMP180;55512;50.102;19.958;2024-03-23T02:05:27;98024.80;;;9.26
68510;BMP180;55512;50.102;19.958;2024-03-23T02:07:53;98018.60;;;9.20
68510;BMP180;55512;50.102;19.958;2024-03-23T02:10:18;98013.60;;;9.20
68510;BMP180;55512;50.102;19.958;2024-03-23T02:12:44;98013.40;;;9.20
68510;BMP180;55512;50.102;19.958;2024-03-23T02:15:09;98006.20;;;9.10
68510;BMP180;55512;50.102;19.958;2024-03-23T02:17:35;98006.80;;;9.10
68510;BMP180;55512;50.102;19.958;2024-03-23T02:20:05;97998.40;;;9.02
68510;BMP180;55512;50.102;19.958;2024-03-23T02:22:38;97996.00;;;9.00
68510;BMP180;55512;50.102;19.958;2024-03-23T02:25:05;97993.00;;;9.00
68510;BMP180;55512;50.102;19.958;2024-03-23T02:27:32;97988.00;;;9.00
68510;BMP180;55512;50.102;19.958;2024-03-23T02:29:58;97983.80;;;9.00
68510;BMP180;55512;50.102;19.958;2024-03-23T02:32:24;97978.20;;;9.00
68510;BMP180;55512;50.102;19.958;2024-03-23T02:34:49;97979.60;;;9.00
68510;BMP180;55512;50.102;19.958;2024-03-23T02:37:14;97973.80;;;9.00
68510;BMP180;55512;50.102;19.958;2024-03-23T02:39:40;97962.40;;;9.00
68510;BMP180;55512;50.102;19.958;2024-03-23T02:42:05;97966.60;;;9.00
68510;BMP180;55512;50.102;19.958;2024-03-23T02:44:31;97970.00;;;9.00
68510;BMP180;55512;50.102;19.958;2024-03-23T02:46:56;97965.60;;;9.00
68510;BMP180;55512;50.102;19.958;2024-03-23T02:49:22;97967.20;;;9.00
68510;BMP180;55512;50.102;19.958;2024-03-23T02:51:47;97966.00;;;9.00
68510;BMP180;55512;50.102;19.958;2024-03-23T02:54:14;97960.40;;;9.00
68510;BMP180;55512;50.102;19.958;2024-03-23T02:56:39;97962.00;;;8.92
68510;BMP180;55512;50.102;19.958;2024-03-23T02:59:05;97962.40;;;8.90
68510;BMP180;55512;50.102;19.958;2024-03-23T03:01:30;97963.00;;;8.90
68510;BMP180;55512;50.102;19.958;2024-03-23T03:03:55;97959.60;;;8.90
68510;BMP180;55512;50.102;19.958;2024-03-23T03:06:25;97964.40;;;8.90
68510;BMP180;55512;50.102;19.958;2024-03-23T03:08:51;97964.80;;;8.90
68510;BMP180;55512;50.102;19.958;2024-03-23T03:11:17;97966.80;;;8.90
68510;BMP180;55512;50.102;19.958;2024-03-23T03:13:42;97961.40;;;8.82
68510;BMP180;55512;50.102;19.958;2024-03-23T03:16:11;97954.80;;;8.86
68510;BMP180;55512;50.102;19.958;2024-03-23T03:18:37;97949.40;;;8.88
68510;BMP180;55512;50.102;19.958;2024-03-23T03:21:04;97943.00;;;8.80
68510;BMP180;55512;50.102;19.958;2024-03-23T03:23:31;97937.40;;;8.80
68510;BMP180;55512;50.102;19.958;2024-03-23T03:25:56;97931.40;;;8.80
68510;BMP180;55512;50.102;19.958;2024-03-23T03:28:22;97927.60;;;8.80
68510;BMP180;55512;50.102;19.958;2024-03-23T03:30:47;97929.20;;;8.80
68510;BMP180;55512;50.102;19.958;2024-03-23T03:33:13;97928.00;;;8.80
68510;BMP180;55512;50.102;19.958;2024-03-23T03:35:38;97924.40;;;8.80
68510;BMP180;55512;50.102;19.958;2024-03-23T03:38:04;97926.80;;;8.80
68510;BMP180;55512;50.102;19.958;2024-03-23T03:40:30;97922.20;;;8.84
68510;BMP180;55512;50.102;19.958;2024-03-23T03:42:55;97922.00;;;8.84
68510;BMP180;55512;50.102;19.958;2024-03-23T03:45:21;97917.20;;;8.80
68510;BMP180;55512;50.102;19.958;2024-03-23T03:47:46;97913.80;;;8.82
68510;BMP180;55512;50.102;19.958;2024-03-23T03:50:11;97910.20;;;8.80
68510;BMP180;55512;50.102;19.958;2024-03-23T03:52:37;97907.60;;;8.84
68510;BMP180;55512;50.102;19.958;2024-03-23T03:55:03;97904.20;;;8.80
68510;BMP180;55512;50.102;19.958;2024-03-23T03:57:29;97902.00;;;8.82
68510;BMP180;55512;50.102;19.958;2024-03-23T03:59:54;97893.00;;;8.80
68510;BMP180;55512;50.102;19.958;2024-03-23T04:02:20;97889.20;;;8.80
68510;BMP180;55512;50.102;19.958;2024-03-23T04:04:45;97888.60;;;8.80
68510;BMP180;55512;50.102;19.958;2024-03-23T04:07:10;97898.00;;;8.84
68510;BMP180;55512;50.102;19.958;2024-03-23T04:09:36;97896.80;;;8.86
68510;BMP180;55512;50.102;19.958;2024-03-23T04:12:01;97903.60;;;8.82
68510;BMP180;55512;50.102;19.958;2024-03-23T04:14:26;97901.80;;;8.80
68510;BMP180;55512;50.102;19.958;2024-03-23T04:16:52;97897.80;;;8.80
68510;BMP180;55512;50.102;19.958;2024-03-23T04:19:17;97899.40;;;8.80
68510;BMP180;55512;50.102;19.958;2024-03-23T04:21:43;97896.80;;;8.80
68510;BMP180;55512;50.102;19.958;2024-03-23T04:24:08;97892.80;;;8.80
68510;BMP180;55512;50.102;19.958;2024-03-23T04:26:41;97910.00;;;8.80
68510;BMP180;55512;50.102;19.958;2024-03-23T04:29:07;97907.60;;;8.80
68510;BMP180;55512;50.102;19.958;2024-03-23T04:31:32;97892.80;;;8.82
68510;BMP180;55512;50.102;19.958;2024-03-23T04:34:00;97897.00;;;8.88
68510;BMP180;55512;50.102;19.958;2024-03-23T04:36:26;97898.60;;;8.90
68510;BMP180;55512;50.102;19.958;2024-03-23T04:38:51;97890.80;;;8.88
68510;BMP180;55512;50.102;19.958;2024-03-23T04:41:18;97892.80;;;8.80
68510;BMP180;55512;50.102;19.958;2024-03-23T04:43:44;97895.20;;;8.80
68510;BMP180;55512;50.102;19.958;2024-03-23T04:46:09;97892.60;;;8.80
68510;BMP180;55512;50.102;19.958;2024-03-23T04:48:34;97886.40;;;8.80
68510;BMP180;55512;50.102;19.958;2024-03-23T04:51:00;97890.00;;;8.78
68510;BMP180;55512;50.102;19.958;2024-03-23T04:53:25;97883.60;;;8.70
68510;BMP180;55512;50.102;19.958;2024-03-23T04:55:58;97891.00;;;8.70
68510;BMP180;55512;50.102;19.958;2024-03-23T04:58:24;97879.20;;;8.70
68510;BMP180;55512;50.102;19.958;2024-03-23T05:00:57;97873.20;;;8.60
68510;BMP180;55512;50.102;19.958;2024-03-23T05:03:23;97878.40;;;8.60
68510;BMP180;55512;50.102;19.958;2024-03-23T05:05:49;97872.40;;;8.62
68510;BMP180;55512;50.102;19.958;2024-03-23T05:08:15;97861.00;;;8.60
68510;BMP180;55512;50.102;19.958;2024-03-23T05:10:44;97861.60;;;8.60
68510;BMP180;55512;50.102;19.958;2024-03-23T05:13:10;97856.80;;;8.60
68510;BMP180;55512;50.102;19.958;2024-03-23T05:15:36;97852.40;;;8.66
68510;BMP180;55512;50.102;19.958;2024-03-23T05:18:01;97852.80;;;8.70
68510;BMP180;55512;50.102;19.958;2024-03-23T05:20:27;97853.00;;;8.70
68510;BMP180;55512;50.102;19.958;2024-03-23T05:22:54;97849.20;;;8.70
68510;BMP180;55512;50.102;19.958;2024-03-23T05:25:20;97850.20;;;8.60
68510;BMP180;55512;50.102;19.958;2024-03-23T05:27:45;97850.20;;;8.60
68510;BMP180;55512;50.102;19.958;2024-03-23T05:30:11;97845.00;;;8.62
68510;BMP180;55512;50.102;19.958;2024-03-23T05:32:36;97842.40;;;8.66
68510;BMP180;55512;50.102;19.958;2024-03-23T05:35:04;97838.20;;;8.70
68510;BMP180;55512;50.102;19.958;2024-03-23T05:37:29;97843.20;;;8.70
68510;BMP180;55512;50.102;19.958;2024-03-23T05:39:56;97837.60;;;8.72
68510;BMP180;55512;50.102;19.958;2024-03-23T05:42:21;97826.40;;;8.80
68510;BMP180;55512;50.102;19.958;2024-03-23T05:44:47;97828.40;;;8.90
68510;BMP180;55512;50.102;19.958;2024-03-23T05:47:13;97824.00;;;8.90
68510;BMP180;55512;50.102;19.958;2024-03-23T05:49:42;97820.80;;;8.92
68510;BMP180;55512;50.102;19.958;2024-03-23T05:52:09;97820.00;;;9.00
68510;BMP180;55512;50.102;19.958;2024-03-23T05:54:35;97826.80;;;9.02
68510;BMP180;55512;50.102;19.958;2024-03-23T05:57:01;97824.40;;;9.10
68510;BMP180;55512;50.102;19.958;2024-03-23T05:59:27;97828.40;;;9.20
68510;BMP180;55512;50.102;19.958;2024-03-23T06:01:53;97828.60;;;9.20
68510;BMP180;55512;50.102;19.958;2024-03-23T06:04:19;97820.60;;;9.20
68510;BMP180;55512;50.102;19.958;2024-03-23T06:06:45;97819.80;;;9.30
68510;BMP180;55512;50.102;19.958;2024-03-23T06:09:11;97822.40;;;9.30
68510;BMP180;55512;50.102;19.958;2024-03-23T06:11:36;97816.80;;;9.40
68510;BMP180;55512;50.102;19.958;2024-03-23T06:14:02;97817.80;;;9.42
68510;BMP180;55512;50.102;19.958;2024-03-23T06:16:27;97807.60;;;9.50
68510;BMP180;55512;50.102;19.958;2024-03-23T06:18:53;97818.60;;;9.52
68510;BMP180;55512;50.102;19.958;2024-03-23T06:21:20;97813.80;;;9.60
68510;BMP180;55512;50.102;19.958;2024-03-23T06:23:46;97808.00;;;9.62
68510;BMP180;55512;50.102;19.958;2024-03-23T06:26:20;97810.00;;;9.70
68510;BMP180;55512;50.102;19.958;2024-03-23T06:28:47;97800.80;;;9.70
68510;BMP180;55512;50.102;19.958;2024-03-23T06:31:13;97800.60;;;9.70
68510;BMP180;55512;50.102;19.958;2024-03-23T06:33:39;97798.20;;;9.80
68510;BMP180;55512;50.102;19.958;2024-03-23T06:36:05;97791.80;;;9.80
68510;BMP180;55512;50.102;19.958;2024-03-23T06:38:31;97793.00;;;9.80
68510;BMP180;55512;50.102;19.958;2024-03-23T06:40:57;97796.20;;;9.90
68510;BMP180;55512;50.102;19.958;2024-03-23T06:43:23;97798.00;;;9.90
68510;BMP180;55512;50.102;19.958;2024-03-23T06:45:55;97791.20;;;10.00
68510;BMP180;55512;50.102;19.958;2024-03-23T06:48:21;97796.00;;;10.02
68510;BMP180;55512;50.102;19.958;2024-03-23T06:50:47;97797.20;;;10.10
68510;BMP180;55512;50.102;19.958;2024-03-23T06:53:14;97800.60;;;10.10
68510;BMP180;55512;50.102;19.958;2024-03-23T06:55:40;97798.20;;;10.20
68510;BMP180;55512;50.102;19.958;2024-03-23T06:58:05;97807.20;;;10.30
68510;BMP180;55512;50.102;19.958;2024-03-23T07:00:31;97803.00;;;10.30
68510;BMP180;55512;50.102;19.958;2024-03-23T07:02:58;97796.00;;;10.36
68510;BMP180;55512;50.102;19.958;2024-03-23T07:05:23;97792.20;;;10.40
68510;BMP180;55512;50.102;19.958;2024-03-23T07:07:50;97791.00;;;10.50
68510;BMP180;55512;50.102;19.958;2024-03-23T07:10:16;97792.40;;;10.60
68510;BMP180;55512;50.102;19.958;2024-03-23T07:12:41;97787.80;;;10.70
68510;BMP180;55512;50.102;19.958;2024-03-23T07:15:07;97791.40;;;10.80
68510;BMP180;55512;50.102;19.958;2024-03-23T07:17:33;97779.20;;;10.88
68510;BMP180;55512;50.102;19.958;2024-03-23T07:20:03;97780.60;;;10.90
68510;BMP180;55512;50.102;19.958;2024-03-23T07:22:32;97787.00;;;11.00
68510;BMP180;55512;50.102;19.958;2024-03-23T07:25:02;97786.20;;;11.08
68510;BMP180;55512;50.102;19.958;2024-03-23T07:27:28;97787.40;;;11.10
68510;BMP180;55512;50.102;19.958;2024-03-23T07:29:53;97786.20;;;11.10
68510;BMP180;55512;50.102;19.958;2024-03-23T07:32:20;97783.80;;;11.20
68510;BMP180;55512;50.102;19.958;2024-03-23T07:34:46;97776.20;;;11.30
68510;BMP180;55512;50.102;19.958;2024-03-23T07:37:11;97772.20;;;11.40
68510;BMP180;55512;50.102;19.958;2024-03-23T07:39:37;97767.40;;;11.50
68510;BMP180;55512;50.102;19.958;2024-03-23T07:42:02;97761.60;;;11.60
68510;BMP180;55512;50.102;19.958;2024-03-23T07:44:28;97767.20;;;11.74
68510;BMP180;55512;50.102;19.958;2024-03-23T07:46:53;97755.80;;;11.90
68510;BMP180;55512;50.102;19.958;2024-03-23T07:49:19;97756.40;;;12.00
68510;BMP180;55512;50.102;19.958;2024-03-23T07:51:44;97766.20;;;12.10
68510;BMP180;55512;50.102;19.958;2024-03-23T07:54:10;97755.60;;;12.30
68510;BMP180;55512;50.102;19.958;2024-03-23T07:56:36;97748.80;;;12.40
68510;BMP180;55512;50.102;19.958;2024-03-23T07:59:01;97745.20;;;12.60
68510;BMP180;55512;50.102;19.958;2024-03-23T08:01:28;97746.40;;;12.70
68510;BMP180;55512;50.102;19.958;2024-03-23T08:03:54;97742.20;;;12.80
68510;BMP180;55512;50.102;19.958;2024-03-23T08:06:20;97742.40;;;12.90
68510;BMP180;55512;50.102;19.958;2024-03-23T08:08:50;97734.20;;;13.10
68510;BMP180;55512;50.102;19.958;2024-03-23T08:11:16;97724.00;;;13.24
68510;BMP180;55512;50.102;19.958;2024-03-23T08:13:45;97717.20;;;13.40
68510;BMP180;55512;50.102;19.958;2024-03-23T08:16:10;97707.60;;;13.60
68510;BMP180;55512;50.102;19.958;2024-03-23T08:18:37;97701.40;;;13.72
68510;BMP180;55512;50.102;19.958;2024-03-23T08:21:05;97703.60;;;13.86
68510;BMP180;55512;50.102;19.958;2024-03-23T08:23:35;97700.80;;;13.90
68510;BMP180;55512;50.102;19.958;2024-03-23T08:26:09;97698.20;;;14.00
68510;BMP180;55512;50.102;19.958;2024-03-23T08:28:35;97698.40;;;14.06
68510;BMP180;55512;50.102;19.958;2024-03-23T08:31:07;97694.20;;;14.10
68510;BMP180;55512;50.102;19.958;2024-03-23T08:33:33;97691.20;;;14.20
68510;BMP180;55512;50.102;19.958;2024-03-23T08:36:06;97687.20;;;14.30
68510;BMP180;55512;50.102;19.958;2024-03-23T08:38:31;97687.40;;;14.30
68510;BMP180;55512;50.102;19.958;2024-03-23T08:43:51;97692.40;;;14.48
68510;BMP180;55512;50.102;19.958;2024-03-23T08:46:17;97683.40;;;14.50
68510;BMP180;55512;50.102;19.958;2024-03-23T08:48:45;97677.00;;;14.50
68510;BMP180;55512;50.102;19.958;2024-03-23T08:51:13;97677.60;;;14.50
68510;BMP180;55512;50.102;19.958;2024-03-23T08:53:40;97671.60;;;14.50
68510;BMP180;55512;50.102;19.958;2024-03-23T08:56:07;97665.60;;;14.50
68510;BMP180;55512;50.102;19.958;2024-03-23T08:58:34;97662.20;;;14.52
68510;BMP180;55512;50.102;19.958;2024-03-23T09:01:11;97658.00;;;14.60
68510;BMP180;55512;50.102;19.958;2024-03-23T09:03:40;97651.80;;;14.60
68510;BMP180;55512;50.102;19.958;2024-03-23T09:06:11;97644.60;;;14.70
68510;BMP180;55512;50.102;19.958;2024-03-23T09:08:37;97643.20;;;14.80
68510;BMP180;55512;50.102;19.958;2024-03-23T09:11:13;97637.80;;;14.90
68510;BMP180;55512;50.102;19.958;2024-03-23T09:13:40;97637.80;;;15.00
68510;BMP180;55512;50.102;19.958;2024-03-23T09:16:07;97631.60;;;15.10
68510;BMP180;55512;50.102;19.958;2024-03-23T09:18:36;97629.00;;;15.30
68510;BMP180;55512;50.102;19.958;2024-03-23T09:21:12;97625.40;;;15.40
68510;BMP180;55512;50.102;19.958;2024-03-23T09:23:39;97623.80;;;15.56
68510;BMP180;55512;50.102;19.958;2024-03-23T09:26:04;97616.00;;;15.70
68510;BMP180;55512;50.102;19.958;2024-03-23T09:28:30;97609.60;;;15.80
68510;BMP180;55512;50.102;19.958;2024-03-23T09:31:05;97608.40;;;15.90
68510;BMP180;55512;50.102;19.958;2024-03-23T09:33:31;97605.20;;;16.00
68510;BMP180;55512;50.102;19.958;2024-03-23T09:35:56;97599.20;;;16.10
68510;BMP180;55512;50.102;19.958;2024-03-23T09:38:23;97598.00;;;16.20
68510;BMP180;55512;50.102;19.958;2024-03-23T09:40:53;97591.40;;;16.30
68510;BMP180;55512;50.102;19.958;2024-03-23T09:43:19;97588.80;;;16.30
68510;BMP180;55512;50.102;19.958;2024-03-23T09:45:46;97581.20;;;16.40
68510;BMP180;55512;50.102;19.958;2024-03-23T09:48:12;97578.20;;;16.40
68510;BMP180;55512;50.102;19.958;2024-03-23T09:50:43;97571.20;;;16.50
68510;BMP180;55512;50.102;19.958;2024-03-23T09:53:11;97566.40;;;16.50
68510;BMP180;55512;50.102;19.958;2024-03-23T09:55:38;97564.20;;;16.50
68510;BMP180;55512;50.102;19.958;2024-03-23T09:58:05;97556.00;;;16.60
68510;BMP180;55512;50.102;19.958;2024-03-23T10:00:34;97550.60;;;16.60
68510;BMP180;55512;50.102;19.958;2024-03-23T10:03:00;97543.80;;;16.60
68510;BMP180;55512;50.102;19.958;2024-03-23T10:05:30;97535.00;;;16.60
68510;BMP180;55512;50.102;19.958;2024-03-23T10:10:42;97526.80;;;16.60
68510;BMP180;55512;50.102;19.958;2024-03-23T10:13:08;97523.60;;;16.52
68510;BMP180;55512;50.102;19.958;2024-03-23T10:15:35;97520.20;;;16.50
68510;BMP180;55512;50.102;19.958;2024-03-23T10:18:20;97513.00;;;16.50
68510;BMP180;55512;50.102;19.958;2024-03-23T10:21:14;97516.80;;;16.50
68510;BMP180;55512;50.102;19.958;2024-03-23T10:23:46;97512.20;;;16.50
68510;BMP180;55512;50.102;19.958;2024-03-23T10:26:24;97503.40;;;16.42
68510;BMP180;55512;50.102;19.958;2024-03-23T10:29:00;97499.60;;;16.40
68510;BMP180;55512;50.102;19.958;2024-03-23T10:31:34;97499.00;;;16.40
68510;BMP180;55512;50.102;19.958;2024-03-23T10:34:03;97493.00;;;16.40
68510;BMP180;55512;50.102;19.958;2024-03-23T10:36:30;97489.00;;;16.40
68510;BMP180;55512;50.102;19.958;2024-03-23T10:38:56;97482.00;;;16.40
68510;BMP180;55512;50.102;19.958;2024-03-23T10:41:27;97472.20;;;16.30
68510;BMP180;55512;50.102;19.958;2024-03-23T10:43:54;97457.40;;;16.30
68510;BMP180;55512;50.102;19.958;2024-03-23T10:46:21;97453.00;;;16.30
68510;BMP180;55512;50.102;19.958;2024-03-23T10:48:47;97441.80;;;16.40
68510;BMP180;55512;50.102;19.958;2024-03-23T10:51:14;97435.20;;;16.40
68510;BMP180;55512;50.102;19.958;2024-03-23T10:53:40;97416.60;;;16.40
68510;BMP180;55512;50.102;19.958;2024-03-23T10:56:07;97417.00;;;16.48
68510;BMP180;55512;50.102;19.958;2024-03-23T10:58:39;97413.60;;;16.50
68510;BMP180;55512;50.102;19.958;2024-03-23T11:01:05;97404.40;;;16.58
68510;BMP180;55512;50.102;19.958;2024-03-23T11:03:36;97398.20;;;16.60
68510;BMP180;55512;50.102;19.958;2024-03-23T11:06:06;97390.80;;;16.60
68510;BMP180;55512;50.102;19.958;2024-03-23T11:08:38;97381.80;;;16.70
68510;BMP180;55512;50.102;19.958;2024-03-23T11:11:24;97382.00;;;16.80
68510;BMP180;55512;50.102;19.958;2024-03-23T11:13:54;97382.80;;;16.90
68510;BMP180;55512;50.102;19.958;2024-03-23T11:16:23;97378.60;;;16.94
68510;BMP180;55512;50.102;19.958;2024-03-23T11:18:50;97371.60;;;17.00
68510;BMP180;55512;50.102;19.958;2024-03-23T11:21:54;97376.20;;;17.10
68510;BMP180;55512;50.102;19.958;2024-03-23T11:24:21;97370.80;;;17.30
68510;BMP180;55512;50.102;19.958;2024-03-23T11:26:48;97372.20;;;17.40
68510;BMP180;55512;50.102;19.958;2024-03-23T11:29:16;97367.80;;;17.50
68510;BMP180;55512;50.102;19.958;2024-03-23T11:31:50;97357.00;;;17.60
68510;BMP180;55512;50.102;19.958;2024-03-23T11:34:16;97353.00;;;17.70
68510;BMP180;55512;50.102;19.958;2024-03-23T11:36:43;97344.40;;;17.84
68510;BMP180;55512;50.102;19.958;2024-03-23T11:39:19;97342.60;;;18.00
68510;BMP180;55512;50.102;19.958;2024-03-23T17:28:48;97446.20;;;8.56
68510;BMP180;55512;50.102;19.958;2024-03-23T17:31:20;97455.80;;;8.60
68510;BMP180;55512;50.102;19.958;2024-03-23T17:33:50;97455.00;;;8.70
68510;BMP180;55512;50.102;19.958;2024-03-23T17:36:19;97464.20;;;8.80
68510;BMP180;55512;50.102;19.958;2024-03-23T17:38:55;97467.00;;;8.74
68510;BMP180;55512;50.102;19.958;2024-03-23T17:41:22;97466.20;;;8.80
68510;BMP180;55512;50.102;19.958;2024-03-23T17:43:50;97478.80;;;8.80
68510;BMP180;55512;50.102;19.958;2024-03-23T17:46:15;97500.40;;;8.80
68510;BMP180;55512;50.102;19.958;2024-03-23T17:48:40;97556.80;;;8.78
68510;BMP180;55512;50.102;19.958;2024-03-23T17:51:07;97567.80;;;8.40
68510;BMP180;55512;50.102;19.958;2024-03-23T17:53:42;97571.20;;;8.00
68510;BMP180;55512;50.102;19.958;2024-03-23T17:56:08;97617.80;;;7.60
68510;BMP180;55512;50.102;19.958;2024-03-23T17:58:33;97614.80;;;7.10
68510;BMP180;55512;50.102;19.958;2024-03-23T18:01:08;97601.80;;;6.80
68510;BMP180;55512;50.102;19.958;2024-03-23T18:03:34;97595.40;;;6.52
68510;BMP180;55512;50.102;19.958;2024-03-23T18:06:00;97586.40;;;6.40
68510;BMP180;55512;50.102;19.958;2024-03-23T18:08:26;97594.60;;;6.50
68510;BMP180;55512;50.102;19.958;2024-03-23T18:10:51;97596.00;;;6.40
68510;BMP180;55512;50.102;19.958;2024-03-23T18:13:17;97595.00;;;6.40
68510;BMP180;55512;50.102;19.958;2024-03-23T18:15:42;97609.00;;;6.40
68510;BMP180;55512;50.102;19.958;2024-03-23T18:18:08;97610.20;;;6.30
68510;BMP180;55512;50.102;19.958;2024-03-23T18:20:34;97626.80;;;6.20
68510;BMP180;55512;50.102;19.958;2024-03-23T18:23:00;97631.00;;;6.20
68510;BMP180;55512;50.102;19.958;2024-03-23T18:25:25;97637.20;;;6.20
68510;BMP180;55512;50.102;19.958;2024-03-23T18:27:50;97639.20;;;6.26
68510;BMP180;55512;50.102;19.958;2024-03-23T18:30:17;97636.60;;;6.32
68510;BMP180;55512;50.102;19.958;2024-03-23T18:32:43;97622.40;;;6.30
68510;BMP180;55512;50.102;19.958;2024-03-23T18:35:11;97612.00;;;6.30
68510;BMP180;55512;50.102;19.958;2024-03-23T18:37:36;97621.80;;;6.28
68510;BMP180;55512;50.102;19.958;2024-03-23T18:40:02;97614.20;;;6.26
68510;BMP180;55512;50.102;19.958;2024-03-23T18:42:27;97622.40;;;6.20
68510;BMP180;55512;50.102;19.958;2024-03-23T18:44:52;97636.80;;;6.10
68510;BMP180;55512;50.102;19.958;2024-03-23T18:47:18;97639.40;;;6.10
68510;BMP180;55512;50.102;19.958;2024-03-23T18:49:43;97634.40;;;6.00
68510;BMP180;55512;50.102;19.958;2024-03-23T18:52:08;97634.40;;;6.00
68510;BMP180;55512;50.102;19.958;2024-03-23T18:54:34;97641.60;;;5.90
68510;BMP180;55512;50.102;19.958;2024-03-23T18:56:59;97655.00;;;5.90
68510;BMP180;55512;50.102;19.958;2024-03-23T18:59:24;97664.00;;;5.90
68510;BMP180;55512;50.102;19.958;2024-03-23T19:01:50;97668.80;;;5.96
68510;BMP180;55512;50.102;19.958;2024-03-23T19:04:15;97674.20;;;6.00
68510;BMP180;55512;50.102;19.958;2024-03-23T19:06:43;97670.40;;;5.90
68510;BMP180;55512;50.102;19.958;2024-03-23T19:09:09;97673.00;;;5.90
68510;BMP180;55512;50.102;19.958;2024-03-23T19:11:35;97668.40;;;5.80
68510;BMP180;55512;50.102;19.958;2024-03-23T19:14:00;97669.40;;;5.80
68510;BMP180;55512;50.102;19.958;2024-03-23T19:16:26;97674.40;;;5.90
68510;BMP180;55512;50.102;19.958;2024-03-23T19:18:52;97668.80;;;5.90
68510;BMP180;55512;50.102;19.958;2024-03-23T19:21:17;97658.00;;;5.88
68510;BMP180;55512;50.102;19.958;2024-03-23T19:23:44;97647.20;;;5.80
68510;BMP180;55512;50.102;19.958;2024-03-23T19:26:09;97658.80;;;5.80
68510;BMP180;55512;50.102;19.958;2024-03-23T19:28:35;97667.20;;;5.70
68510;BMP180;55512;50.102;19.958;2024-03-23T19:31:02;97675.80;;;5.60
68510;BMP180;55512;50.102;19.958;2024-03-23T19:33:28;97674.80;;;5.54
68510;BMP180;55512;50.102;19.958;2024-03-23T19:35:55;97681.60;;;5.50
68510;BMP180;55512;50.102;19.958;2024-03-23T19:38:21;97690.40;;;5.50
68510;BMP180;55512;50.102;19.958;2024-03-23T19:40:57;97694.00;;;5.40
68510;BMP180;55512;50.102;19.958;2024-03-23T19:43:26;97693.00;;;5.38
68510;BMP180;55512;50.102;19.958;2024-03-23T19:45:52;97695.60;;;5.40
68510;BMP180;55512;50.102;19.958;2024-03-23T19:48:18;97688.40;;;5.40
68510;BMP180;55512;50.102;19.958;2024-03-23T19:50:44;97692.60;;;5.42
68510;BMP180;55512;50.102;19.958;2024-03-23T19:53:09;97687.60;;;5.50
68510;BMP180;55512;50.102;19.958;2024-03-23T19:55:36;97699.20;;;5.48
68510;BMP180;55512;50.102;19.958;2024-03-23T19:58:06;97690.40;;;5.40
68510;BMP180;55512;50.102;19.958;2024-03-23T20:00:33;97694.60;;;5.40
68510;BMP180;55512;50.102;19.958;2024-03-23T20:02:58;97691.80;;;5.40
68510;BMP180;55512;50.102;19.958;2024-03-23T20:05:26;97695.20;;;5.40
68510;BMP180;55512;50.102;19.958;2024-03-23T20:07:52;97699.40;;;5.40
68510;BMP180;55512;50.102;19.958;2024-03-23T20:10:18;97707.40;;;5.40
68510;BMP180;55512;50.102;19.958;2024-03-23T20:12:43;97700.80;;;5.30
68510;BMP180;55512;50.102;19.958;2024-03-23T20:15:08;97694.60;;;5.20
68510;BMP180;55512;50.102;19.958;2024-03-23T20:17:35;97688.20;;;5.10
68510;BMP180;55512;50.102;19.958;2024-03-23T20:20:01;97687.20;;;5.00
68510;BMP180;55512;50.102;19.958;2024-03-23T20:22:26;97675.80;;;4.90
68510;BMP180;55512;50.102;19.958;2024-03-23T20:24:51;97669.20;;;4.90
68510;BMP180;55512;50.102;19.958;2024-03-23T20:27:18;97680.00;;;4.80
68510;BMP180;55512;50.102;19.958;2024-03-23T20:29:44;97668.60;;;4.80
68510;BMP180;55512;50.102;19.958;2024-03-23T20:32:09;97661.20;;;4.70
68510;BMP180;55512;50.102;19.958;2024-03-23T20:34:35;97656.60;;;4.70
68510;BMP180;55512;50.102;19.958;2024-03-23T20:37:00;97660.40;;;4.68
68510;BMP180;55512;50.102;19.958;2024-03-23T20:39:25;97658.00;;;4.60
68510;BMP180;55512;50.102;19.958;2024-03-23T20:41:51;97650.40;;;4.60
68510;BMP180;55512;50.102;19.958;2024-03-23T20:44:16;97642.40;;;4.60
68510;BMP180;55512;50.102;19.958;2024-03-23T20:46:42;97634.20;;;4.56